Coastal Inspiration — CFN4970 — position and weather

sailwx.info

Track history (hours):
 
Tides and Currents Weather Stations Pressure Air Temp Water Temp Dewpoint Dewpoint Depression Visibility Wind Speed Wind Dir Waves Ship Positions

Coastal Inspiration

Last reported at 2014-Sep-19 19:34 UTC. Time now 2014-Sep-19 19:52 UTC.
Position N 49°00' W 123°08'.

Length 160 m; draft 6 m.

Type: Ship. MMSI: 316011408.

Date/timePositionNaut miles runAvg speedWind from/ knotsBaromVisibWave heightAir tempDewpointWater temp
2014-Sep-19 19:34N 49°00' W 123°08'1212.1
2014-Sep-19 18:33N 49°04' W 123°26'1818.1
2014-Sep-19 17:33N 49°13' W 123°50'1 0.5
2014-Sep-19 16:33N 49°13' W 123°51'1817.6
2014-Sep-19 15:33N 49°06' W 123°26'1313.0
2014-Sep-19 14:33N 49°00' W 123°08'1211.9
2014-Sep-19 13:33N 49°04' W 123°25'1717.4
2014-Sep-19 12:33N 49°13' W 123°48'5 4.6
2014-Sep-19 11:32N 49°10' W 123°53'0 0.0
2014-Sep-19 10:34N 49°10' W 123°53'0 0.0
2014-Sep-19 09:34N 49°10' W 123°53'0 0.0
2014-Sep-19 08:34N 49°10' W 123°53'0 0.5
2014-Sep-19 07:34N 49°10' W 123°53'1716.6
2014-Sep-19 06:33N 49°07' W 123°28'1515.0
2014-Sep-19 05:33N 49°00' W 123°08'1212.0
2014-Sep-19 04:33N 49°04' W 123°25'1818.0
2014-Sep-19 03:33N 49°13' W 123°49'1 0.9
2014-Sep-19 02:33N 49°13' W 123°51'1919.4
2014-Sep-19 01:33N 49°05' W 123°23'1111.2
2014-Sep-19 00:34N 49°00' W 123°08'1413.8
2014-Sep-18 23:34N 49°05' W 123°28'1817.8
2014-Sep-18 22:34N 49°12' W 123°53'1 0.7
2014-Sep-18 21:32N 49°13' W 123°52'1817.9
2014-Sep-18 20:33N 49°06' W 123°27'1413.7
2014-Sep-18 19:33N 49°00' W 123°08'1312.6
2014-Sep-18 18:34N 49°04' W 123°26'1818.3
2014-Sep-18 17:33N 49°13' W 123°51'0 0.2
2014-Sep-18 16:33N 49°13' W 123°51'1717.4
2014-Sep-18 15:34N 49°06' W 123°27'1413.7
2014-Sep-18 14:33N 49°00' W 123°08'1211.7
2014-Sep-18 13:33N 49°04' W 123°25'1817.6
2014-Sep-18 12:33N 49°13' W 123°48'5 4.6
2014-Sep-18 11:33N 49°10' W 123°53'0 0.0
2014-Sep-18 10:33N 49°10' W 123°53'0 0.0
2014-Sep-18 09:33N 49°10' W 123°53'0 0.0
2014-Sep-18 08:33N 49°10' W 123°53'0 0.3
2014-Sep-18 07:33N 49°10' W 123°53'1716.7
2014-Sep-18 06:33N 49°07' W 123°28'1514.9
2014-Sep-18 05:33N 49°00' W 123°08'1212.4
2014-Sep-18 04:33N 49°04' W 123°26'1918.7
2014-Sep-18 03:33N 49°12' W 123°52'2 2.1
2014-Sep-18 02:33N 49°13' W 123°49'2019.8
2014-Sep-18 01:33N 49°04' W 123°21'10 9.7
2014-Sep-18 00:33N 49°00' W 123°08'1313.5
2014-Sep-17 23:33N 49°05' W 123°27'1818.3
2014-Sep-17 22:34N 49°12' W 123°53'1 0.8
2014-Sep-17 21:33N 49°12' W 123°53'1918.8
2014-Sep-17 20:33N 49°06' W 123°26'1313.0
2014-Sep-17 19:33N 49°00' W 123°08'1212.0
2014-Sep-17 18:34N 49°04' W 123°25'1918.6
2014-Sep-17 17:34N 49°13' W 123°50'0 0.0
2014-Sep-17 16:33N 49°13' W 123°50'1919.2
2014-Sep-17 15:33N 49°05' W 123°23'1111.2
2014-Sep-17 14:34N 49°00' W 123°08'1312.5
2014-Sep-17 13:34N 49°04' W 123°26'1817.7
2014-Sep-17 12:34N 49°13' W 123°50'4 4.0
2014-Sep-17 11:30N 49°10' W 123°53'0 0.0
2014-Sep-17 10:34N 49°10' W 123°53'0 0.0
2014-Sep-17 09:34N 49°10' W 123°53'0 0.0
2014-Sep-17 08:34N 49°10' W 123°53'1 1.0
2014-Sep-17 07:33N 49°11' W 123°53'1717.2
2014-Sep-17 06:33N 49°07' W 123°28'1414.4
2014-Sep-17 05:34N 49°00' W 123°08'1212.3
2014-Sep-17 04:33N 49°03' W 123°26'1918.7
2014-Sep-17 03:34N 49°13' W 123°51'1 0.8
2014-Sep-17 02:33N 49°13' W 123°50'2019.5
2014-Sep-17 01:33N 49°05' W 123°23'1111.0
2014-Sep-17 00:33N 49°00' W 123°08'1212.3
2014-Sep-16 23:33N 49°04' W 123°26'1818.5
2014-Sep-16 22:34N 49°13' W 123°51'1 0.9
2014-Sep-16 21:33N 49°12' W 123°52'1818.3
2014-Sep-16 20:34N 49°06' W 123°26'1313.3
2014-Sep-16 19:34N 49°00' W 123°08'1211.6
2014-Sep-16 18:33N 49°04' W 123°25'1818.3
2014-Sep-16 17:33N 49°13' W 123°49'2 2.0
2014-Sep-16 16:33N 49°13' W 123°52'1818.5
2014-Sep-16 15:33N 49°06' W 123°26'1312.8
2014-Sep-16 14:33N 49°00' W 123°08'1312.9
2014-Sep-16 13:33N 49°04' W 123°27'1717.3
2014-Sep-16 12:34N 49°13' W 123°49'4 4.3
2014-Sep-16 11:33N 49°10' W 123°53'0 0.0
2014-Sep-16 10:33N 49°10' W 123°53'0 0.0
2014-Sep-16 09:33N 49°10' W 123°53'0 0.0
2014-Sep-16 08:31N 49°10' W 123°53'1 0.9
2014-Sep-16 07:33N 49°11' W 123°53'1717.0
2014-Sep-16 06:33N 49°07' W 123°28'1514.6
2014-Sep-16 05:33N 49°00' W 123°08'1212.3
2014-Sep-16 04:33N 49°04' W 123°26'1918.8
2014-Sep-16 03:33N 49°13' W 123°51'0 0.4
2014-Sep-16 02:33N 49°12' W 123°52'1919.2
2014-Sep-16 01:34N 49°06' W 123°25'1212.2
2014-Sep-16 00:33N 49°00' W 123°08'1413.9
2014-Sep-15 23:34N 49°05' W 123°28'1817.7
2014-Sep-15 22:33N 49°11' W 123°53'3 2.6
2014-Sep-15 21:33N 49°13' W 123°50'1818.4
2014-Sep-15 20:33N 49°05' W 123°25'1212.1
2014-Sep-15 19:33N 49°00' W 123°08'1211.6
2014-Sep-15 18:33N 49°04' W 123°25'1817.8
2014-Sep-15 17:33N 49°13' W 123°48'4 4.0
2014-Sep-15 16:34N 49°11' W 123°53'1717.0
2014-Sep-15 15:33N 49°07' W 123°28'1514.6
2014-Sep-15 14:33N 49°00' W 123°08'1312.8
2014-Sep-15 13:33N 49°04' W 123°27'1817.8
2014-Sep-15 12:33N 49°13' W 123°50'4 4.3
2014-Sep-15 11:33N 49°10' W 123°53'0 0.1
2014-Sep-15 10:33N 49°10' W 123°53'0 0.0
2014-Sep-15 09:33N 49°10' W 123°53'0 0.0
2014-Sep-15 08:33N 49°10' W 123°53'1 0.8
2014-Sep-15 07:34N 49°11' W 123°53'1716.9
2014-Sep-15 06:33N 49°07' W 123°28'1514.7
2014-Sep-15 05:33N 49°00' W 123°08'1313.1
2014-Sep-15 04:33N 49°04' W 123°27'1918.8
2014-Sep-15 03:33N 49°12' W 123°53'3 3.0
2014-Sep-15 02:33N 49°13' W 123°49'2020.2
2014-Sep-15 01:33N 49°04' W 123°21'9 9.5
2014-Sep-15 00:34N 49°00' W 123°08'1616.4
2014-Sep-14 23:33N 49°07' W 123°31'1515.0
2014-Sep-14 22:34N 49°10' W 123°53'4 3.7
2014-Sep-14 21:33N 49°13' W 123°50'1918.6
2014-Sep-14 20:33N 49°05' W 123°24'1211.8
2014-Sep-14 19:33N 49°00' W 123°08'1212.4
2014-Sep-14 18:33N 49°04' W 123°26'1817.8
2014-Sep-14 17:34N 49°13' W 123°49'4 4.0
2014-Sep-14 16:31N 49°10' W 123°53'0 0.1
2014-Sep-14 15:33N 49°10' W 123°53'0 0.0
2014-Sep-14 14:33N 49°10' W 123°53'0 0.0
2014-Sep-14 13:33N 49°10' W 123°53'0 0.0
2014-Sep-14 12:33N 49°10' W 123°53'0 0.0
2014-Sep-14 11:34N 49°10' W 123°53'0 0.0
2014-Sep-14 10:33N 49°10' W 123°53'0 0.0
2014-Sep-14 09:33N 49°10' W 123°53'0 0.0
2014-Sep-14 08:33N 49°10' W 123°53'0 0.0
2014-Sep-14 07:33N 49°10' W 123°53'0 0.0
2014-Sep-14 06:33N 49°10' W 123°53'0 0.0
2014-Sep-14 05:33N 49°10' W 123°53'0 0.0
2014-Sep-14 04:33N 49°10' W 123°53'0 0.0
2014-Sep-14 03:33N 49°10' W 123°53'3 2.8
2014-Sep-14 02:33N 49°12' W 123°53'1818.2
2014-Sep-14 01:33N 49°06' W 123°27'18 4.5
2014-Sep-13 21:33N 49°12' W 123°52'1817.9
2014-Sep-13 20:33N 49°06' W 123°27'1413.7
2014-Sep-13 19:33N 49°00' W 123°08'1111.0
2014-Sep-13 18:33N 49°03' W 123°24'1918.7
2014-Sep-13 17:34N 49°13' W 123°49'3 3.0
2014-Sep-13 16:33N 49°12' W 123°53'1818.2
2014-Sep-13 15:33N 49°06' W 123°27'1413.7
2014-Sep-13 14:33N 49°00' W 123°08'1313.1
2014-Sep-13 13:33N 49°05' W 123°27'1817.7
2014-Sep-13 12:33N 49°13' W 123°51'4 3.5
2014-Sep-13 11:29N 49°10' W 123°53'0 0.0
2014-Sep-13 10:33N 49°10' W 123°53'0 0.0
2014-Sep-13 09:33N 49°10' W 123°53'0 0.0
2014-Sep-13 08:33N 49°10' W 123°53'1 0.7
2014-Sep-13 07:33N 49°10' W 123°53'1716.8
2014-Sep-13 06:33N 49°07' W 123°28'1514.9
2014-Sep-13 05:34N 49°00' W 123°08'1212.0
2014-Sep-13 04:34N 49°04' W 123°25'1818.1
2014-Sep-13 03:33N 49°13' W 123°49'1 1.0
2014-Sep-13 02:34N 49°13' W 123°51'1918.8
2014-Sep-13 01:34N 49°05' W 123°24'1211.9
2014-Sep-13 00:34N 49°00' W 123°08'1312.9
2014-Sep-12 23:33N 49°04' W 123°27'1817.9
2014-Sep-12 22:34N 49°13' W 123°51'0 0.3
2014-Sep-12 21:33N 49°13' W 123°51'1919.4
2014-Sep-12 20:33N 49°05' W 123°24'1211.5
2014-Sep-12 19:33N 49°00' W 123°08'1212.4
2014-Sep-12 18:34N 49°04' W 123°26'1918.8
2014-Sep-12 17:33N 49°13' W 123°51'1 0.8
2014-Sep-12 16:33N 49°13' W 123°50'1817.8
2014-Sep-12 15:33N 49°06' W 123°25'1312.7
2014-Sep-12 14:34N 49°00' W 123°08'1312.7
2014-Sep-12 13:33N 49°04' W 123°26'1717.5
2014-Sep-12 12:33N 49°13' W 123°50'4 4.0
2014-Sep-12 11:33N 49°10' W 123°53'0 0.0
2014-Sep-12 10:33N 49°10' W 123°53'0 0.0
2014-Sep-12 09:32N 49°10' W 123°53'0 0.0
2014-Sep-12 08:33N 49°10' W 123°53'1 0.6
2014-Sep-12 07:33N 49°10' W 123°53'1716.2
2014-Sep-12 06:32N 49°07' W 123°29'1515.3
2014-Sep-12 05:34N 49°00' W 123°08'1111.1
2014-Sep-12 04:33N 49°03' W 123°24'2019.6
2014-Sep-12 03:33N 49°13' W 123°50'1 0.6
2014-Sep-12 02:33N 49°13' W 123°50'2019.6
2014-Sep-12 01:33N 49°05' W 123°22'1010.5
2014-Sep-12 00:34N 49°00' W 123°08'1312.5
2014-Sep-11 23:33N 49°04' W 123°26'1817.9
2014-Sep-11 22:33N 49°13' W 123°50'0 0.4
2014-Sep-11 21:33N 49°13' W 123°51'1818.5
2014-Sep-11 20:34N 49°06' W 123°25'1212.4
2014-Sep-11 19:33N 49°00' W 123°08'1312.9
2014-Sep-11 18:33N 49°04' W 123°27'1818.0
2014-Sep-11 17:33N 49°13' W 123°51'1 0.8
2014-Sep-11 16:33N 49°13' W 123°50'1817.6
2014-Sep-11 15:34N 49°06' W 123°25'1312.7
2014-Sep-11 14:34N 49°00' W 123°08'1312.8
2014-Sep-11 13:33N 49°05' W 123°26'1717.4
2014-Sep-11 12:33N 49°13' W 123°50'4 4.0
2014-Sep-11 11:33N 49°10' W 123°53'0 0.0
2014-Sep-11 10:33N 49°10' W 123°53'0 0.0
2014-Sep-11 09:33N 49°10' W 123°53'0 0.0
2014-Sep-11 08:33N 49°10' W 123°53'0 0.4
2014-Sep-11 07:33N 49°10' W 123°53'1616.2
2014-Sep-11 06:33N 49°07' W 123°29'1515.5
2014-Sep-11 05:33N 49°00' W 123°08'1111.5
2014-Sep-11 04:33N 49°03' W 123°25'1817.8
2014-Sep-11 03:33N 49°13' W 123°48'4 4.2
2014-Sep-11 02:33N 49°11' W 123°53'1717.2
2014-Sep-11 01:33N 49°07' W 123°28'1414.5
2014-Sep-11 00:33N 49°00' W 123°08'1312.5
2014-Sep-10 23:33N 49°04' W 123°26'1817.8
2014-Sep-10 22:33N 49°13' W 123°50'1 0.7
2014-Sep-10 21:33N 49°13' W 123°51'1818.1
2014-Sep-10 20:33N 49°06' W 123°26'1312.7
2014-Sep-10 19:33N 49°00' W 123°08'1312.7
2014-Sep-10 18:33N 49°04' W 123°26'1818.2
2014-Sep-10 17:33N 49°13' W 123°51'0 0.4
2014-Sep-10 16:33N 49°13' W 123°50'1818.1
2014-Sep-10 15:33N 49°06' W 123°25'1312.6
2014-Sep-10 14:33N 49°00' W 123°08'1312.9
2014-Sep-10 13:33N 49°05' W 123°26'1717.4
2014-Sep-10 12:33N 49°13' W 123°50'4 0.7
2014-Sep-10 07:33N 49°10' W 123°53'1616.0
2014-Sep-10 06:33N 49°07' W 123°29'1615.6
2014-Sep-10 05:34N 49°00' W 123°08'1010.5
2014-Sep-10 04:33N 49°03' W 123°23'1918.8
2014-Sep-10 03:32N 49°13' W 123°48'3 3.4
2014-Sep-10 02:33N 49°12' W 123°53'1818.0
2014-Sep-10 01:33N 49°06' W 123°27'1413.9
2014-Sep-10 00:34N 49°00' W 123°08'1313.1
2014-Sep-09 23:34N 49°05' W 123°27'1817.8
2014-Sep-09 22:33N 49°12' W 123°51'0 0.2
2014-Sep-09 21:34N 49°13' W 123°52'1817.6
2014-Sep-09 20:34N 49°06' W 123°26'  
Track history (hours):
 
Tides and Currents Weather Stations Pressure Air Temp Water Temp Dewpoint Dewpoint Depression Visibility Wind Speed Wind Dir Waves Ship Positions

Coastal Inspiration

Last reported at 2014-Sep-19 19:34 UTC. Time now 2014-Sep-19 19:52 UTC.
Position N 49°00' W 123°08'.

Length 160 m; draft 6 m.

Type: Ship. MMSI: 316011408.

Date/timePositionNaut miles runAvg speedWind from/ knotsBaromVisibWave heightAir tempDewpointWater temp
2014-Sep-19 19:34N 49°00' W 123°08'1212.1
2014-Sep-19 18:33N 49°04' W 123°26'1818.1
2014-Sep-19 17:33N 49°13' W 123°50'1 0.5
2014-Sep-19 16:33N 49°13' W 123°51'1817.6
2014-Sep-19 15:33N 49°06' W 123°26'1313.0
2014-Sep-19 14:33N 49°00' W 123°08'1211.9
2014-Sep-19 13:33N 49°04' W 123°25'1717.4
2014-Sep-19 12:33N 49°13' W 123°48'5 4.6
2014-Sep-19 11:32N 49°10' W 123°53'0 0.0
2014-Sep-19 10:34N 49°10' W 123°53'0 0.0
2014-Sep-19 09:34N 49°10' W 123°53'0 0.0
2014-Sep-19 08:34N 49°10' W 123°53'0 0.5
2014-Sep-19 07:34N 49°10' W 123°53'1716.6
2014-Sep-19 06:33N 49°07' W 123°28'1515.0
2014-Sep-19 05:33N 49°00' W 123°08'1212.0
2014-Sep-19 04:33N 49°04' W 123°25'1818.0
2014-Sep-19 03:33N 49°13' W 123°49'1 0.9
2014-Sep-19 02:33N 49°13' W 123°51'1919.4
2014-Sep-19 01:33N 49°05' W 123°23'1111.2
2014-Sep-19 00:34N 49°00' W 123°08'1413.8
2014-Sep-18 23:34N 49°05' W 123°28'1817.8
2014-Sep-18 22:34N 49°12' W 123°53'1 0.7
2014-Sep-18 21:32N 49°13' W 123°52'1817.9
2014-Sep-18 20:33N 49°06' W 123°27'1413.7
2014-Sep-18 19:33N 49°00' W 123°08'1312.6
2014-Sep-18 18:34N 49°04' W 123°26'1818.3
2014-Sep-18 17:33N 49°13' W 123°51'0 0.2
2014-Sep-18 16:33N 49°13' W 123°51'1717.4
2014-Sep-18 15:34N 49°06' W 123°27'1413.7
2014-Sep-18 14:33N 49°00' W 123°08'1211.7
2014-Sep-18 13:33N 49°04' W 123°25'1817.6
2014-Sep-18 12:33N 49°13' W 123°48'5 4.6
2014-Sep-18 11:33N 49°10' W 123°53'0 0.0
2014-Sep-18 10:33N 49°10' W 123°53'0 0.0
2014-Sep-18 09:33N 49°10' W 123°53'0 0.0
2014-Sep-18 08:33N 49°10' W 123°53'0 0.3
2014-Sep-18 07:33N 49°10' W 123°53'1716.7
2014-Sep-18 06:33N 49°07' W 123°28'1514.9
2014-Sep-18 05:33N 49°00' W 123°08'1212.4
2014-Sep-18 04:33N 49°04' W 123°26'1918.7
2014-Sep-18 03:33N 49°12' W 123°52'2 2.1
2014-Sep-18 02:33N 49°13' W 123°49'2019.8
2014-Sep-18 01:33N 49°04' W 123°21'10 9.7
2014-Sep-18 00:33N 49°00' W 123°08'1313.5
2014-Sep-17 23:33N 49°05' W 123°27'1818.3
2014-Sep-17 22:34N 49°12' W 123°53'1 0.8
2014-Sep-17 21:33N 49°12' W 123°53'1918.8
2014-Sep-17 20:33N 49°06' W 123°26'1313.0
2014-Sep-17 19:33N 49°00' W 123°08'1212.0
2014-Sep-17 18:34N 49°04' W 123°25'1918.6
2014-Sep-17 17:34N 49°13' W 123°50'0 0.0
2014-Sep-17 16:33N 49°13' W 123°50'1919.2
2014-Sep-17 15:33N 49°05' W 123°23'1111.2
2014-Sep-17 14:34N 49°00' W 123°08'1312.5
2014-Sep-17 13:34N 49°04' W 123°26'1817.7
2014-Sep-17 12:34N 49°13' W 123°50'4 4.0
2014-Sep-17 11:30N 49°10' W 123°53'0 0.0
2014-Sep-17 10:34N 49°10' W 123°53'0 0.0
2014-Sep-17 09:34N 49°10' W 123°53'0 0.0
2014-Sep-17 08:34N 49°10' W 123°53'1 1.0
2014-Sep-17 07:33N 49°11' W 123°53'1717.2
2014-Sep-17 06:33N 49°07' W 123°28'1414.4
2014-Sep-17 05:34N 49°00' W 123°08'1212.3
2014-Sep-17 04:33N 49°03' W 123°26'1918.7
2014-Sep-17 03:34N 49°13' W 123°51'1 0.8
2014-Sep-17 02:33N 49°13' W 123°50'2019.5
2014-Sep-17 01:33N 49°05' W 123°23'1111.0
2014-Sep-17 00:33N 49°00' W 123°08'1212.3
2014-Sep-16 23:33N 49°04' W 123°26'1818.5
2014-Sep-16 22:34N 49°13' W 123°51'1 0.9
2014-Sep-16 21:33N 49°12' W 123°52'1818.3
2014-Sep-16 20:34N 49°06' W 123°26'1313.3
2014-Sep-16 19:34N 49°00' W 123°08'1211.6
2014-Sep-16 18:33N 49°04' W 123°25'1818.3
2014-Sep-16 17:33N 49°13' W 123°49'2 2.0
2014-Sep-16 16:33N 49°13' W 123°52'1818.5
2014-Sep-16 15:33N 49°06' W 123°26'1312.8
2014-Sep-16 14:33N 49°00' W 123°08'1312.9
2014-Sep-16 13:33N 49°04' W 123°27'1717.3
2014-Sep-16 12:34N 49°13' W 123°49'4 4.3
2014-Sep-16 11:33N 49°10' W 123°53'0 0.0
2014-Sep-16 10:33N 49°10' W 123°53'0 0.0
2014-Sep-16 09:33N 49°10' W 123°53'0 0.0
2014-Sep-16 08:31N 49°10' W 123°53'1 0.9
2014-Sep-16 07:33N 49°11' W 123°53'1717.0
2014-Sep-16 06:33N 49°07' W 123°28'1514.6
2014-Sep-16 05:33N 49°00' W 123°08'1212.3
2014-Sep-16 04:33N 49°04' W 123°26'1918.8
2014-Sep-16 03:33N 49°13' W 123°51'0 0.4
2014-Sep-16 02:33N 49°12' W 123°52'1919.2
2014-Sep-16 01:34N 49°06' W 123°25'1212.2
2014-Sep-16 00:33N 49°00' W 123°08'1413.9
2014-Sep-15 23:34N 49°05' W 123°28'1817.7
2014-Sep-15 22:33N 49°11' W 123°53'3 2.6
2014-Sep-15 21:33N 49°13' W 123°50'1818.4
2014-Sep-15 20:33N 49°05' W 123°25'1212.1
2014-Sep-15 19:33N 49°00' W 123°08'1211.6
2014-Sep-15 18:33N 49°04' W 123°25'1817.8
2014-Sep-15 17:33N 49°13' W 123°48'4 4.0
2014-Sep-15 16:34N 49°11' W 123°53'1717.0
2014-Sep-15 15:33N 49°07' W 123°28'1514.6
2014-Sep-15 14:33N 49°00' W 123°08'1312.8
2014-Sep-15 13:33N 49°04' W 123°27'1817.8
2014-Sep-15 12:33N 49°13' W 123°50'4 4.3
2014-Sep-15 11:33N 49°10' W 123°53'0 0.1
2014-Sep-15 10:33N 49°10' W 123°53'0 0.0
2014-Sep-15 09:33N 49°10' W 123°53'0 0.0
2014-Sep-15 08:33N 49°10' W 123°53'1 0.8
2014-Sep-15 07:34N 49°11' W 123°53'1716.9
2014-Sep-15 06:33N 49°07' W 123°28'1514.7
2014-Sep-15 05:33N 49°00' W 123°08'1313.1
2014-Sep-15 04:33N 49°04' W 123°27'1918.8
2014-Sep-15 03:33N 49°12' W 123°53'3 3.0
2014-Sep-15 02:33N 49°13' W 123°49'2020.2
2014-Sep-15 01:33N 49°04' W 123°21'9 9.5
2014-Sep-15 00:34N 49°00' W 123°08'1616.4
2014-Sep-14 23:33N 49°07' W 123°31'1515.0
2014-Sep-14 22:34N 49°10' W 123°53'4 3.7
2014-Sep-14 21:33N 49°13' W 123°50'1918.6
2014-Sep-14 20:33N 49°05' W 123°24'1211.8
2014-Sep-14 19:33N 49°00' W 123°08'1212.4
2014-Sep-14 18:33N 49°04' W 123°26'1817.8
2014-Sep-14 17:34N 49°13' W 123°49'4 4.0
2014-Sep-14 16:31N 49°10' W 123°53'0 0.1
2014-Sep-14 15:33N 49°10' W 123°53'0 0.0
2014-Sep-14 14:33N 49°10' W 123°53'0 0.0
2014-Sep-14 13:33N 49°10' W 123°53'0 0.0
2014-Sep-14 12:33N 49°10' W 123°53'0 0.0
2014-Sep-14 11:34N 49°10' W 123°53'0 0.0
2014-Sep-14 10:33N 49°10' W 123°53'0 0.0
2014-Sep-14 09:33N 49°10' W 123°53'0 0.0
2014-Sep-14 08:33N 49°10' W 123°53'0 0.0
2014-Sep-14 07:33N 49°10' W 123°53'0 0.0
2014-Sep-14 06:33N 49°10' W 123°53'0 0.0
2014-Sep-14 05:33N 49°10' W 123°53'0 0.0
2014-Sep-14 04:33N 49°10' W 123°53'0 0.0
2014-Sep-14 03:33N 49°10' W 123°53'3 2.8
2014-Sep-14 02:33N 49°12' W 123°53'1818.2
2014-Sep-14 01:33N 49°06' W 123°27'18 4.5
2014-Sep-13 21:33N 49°12' W 123°52'1817.9
2014-Sep-13 20:33N 49°06' W 123°27'1413.7
2014-Sep-13 19:33N 49°00' W 123°08'1111.0
2014-Sep-13 18:33N 49°03' W 123°24'1918.7
2014-Sep-13 17:34N 49°13' W 123°49'3 3.0
2014-Sep-13 16:33N 49°12' W 123°53'1818.2
2014-Sep-13 15:33N 49°06' W 123°27'1413.7
2014-Sep-13 14:33N 49°00' W 123°08'1313.1
2014-Sep-13 13:33N 49°05' W 123°27'1817.7
2014-Sep-13 12:33N 49°13' W 123°51'4 3.5
2014-Sep-13 11:29N 49°10' W 123°53'0 0.0
2014-Sep-13 10:33N 49°10' W 123°53'0 0.0
2014-Sep-13 09:33N 49°10' W 123°53'0 0.0
2014-Sep-13 08:33N 49°10' W 123°53'1 0.7
2014-Sep-13 07:33N 49°10' W 123°53'1716.8
2014-Sep-13 06:33N 49°07' W 123°28'1514.9
2014-Sep-13 05:34N 49°00' W 123°08'1212.0
2014-Sep-13 04:34N 49°04' W 123°25'1818.1
2014-Sep-13 03:33N 49°13' W 123°49'1 1.0
2014-Sep-13 02:34N 49°13' W 123°51'1918.8
2014-Sep-13 01:34N 49°05' W 123°24'1211.9
2014-Sep-13 00:34N 49°00' W 123°08'1312.9
2014-Sep-12 23:33N 49°04' W 123°27'1817.9
2014-Sep-12 22:34N 49°13' W 123°51'0 0.3
2014-Sep-12 21:33N 49°13' W 123°51'1919.4
2014-Sep-12 20:33N 49°05' W 123°24'1211.5
2014-Sep-12 19:33N 49°00' W 123°08'1212.4
2014-Sep-12 18:34N 49°04' W 123°26'1918.8
2014-Sep-12 17:33N 49°13' W 123°51'1 0.8
2014-Sep-12 16:33N 49°13' W 123°50'1817.8
2014-Sep-12 15:33N 49°06' W 123°25'1312.7
2014-Sep-12 14:34N 49°00' W 123°08'1312.7
2014-Sep-12 13:33N 49°04' W 123°26'1717.5
2014-Sep-12 12:33N 49°13' W 123°50'4 4.0
2014-Sep-12 11:33N 49°10' W 123°53'0 0.0
2014-Sep-12 10:33N 49°10' W 123°53'0 0.0
2014-Sep-12 09:32N 49°10' W 123°53'0 0.0
2014-Sep-12 08:33N 49°10' W 123°53'1 0.6
2014-Sep-12 07:33N 49°10' W 123°53'1716.2
2014-Sep-12 06:32N 49°07' W 123°29'1515.3
2014-Sep-12 05:34N 49°00' W 123°08'1111.1
2014-Sep-12 04:33N 49°03' W 123°24'2019.6
2014-Sep-12 03:33N 49°13' W 123°50'1 0.6
2014-Sep-12 02:33N 49°13' W 123°50'2019.6
2014-Sep-12 01:33N 49°05' W 123°22'1010.5
2014-Sep-12 00:34N 49°00' W 123°08'1312.5
2014-Sep-11 23:33N 49°04' W 123°26'1817.9
2014-Sep-11 22:33N 49°13' W 123°50'0 0.4
2014-Sep-11 21:33N 49°13' W 123°51'1818.5
2014-Sep-11 20:34N 49°06' W 123°25'1212.4
2014-Sep-11 19:33N 49°00' W 123°08'1312.9
2014-Sep-11 18:33N 49°04' W 123°27'1818.0
2014-Sep-11 17:33N 49°13' W 123°51'1 0.8
2014-Sep-11 16:33N 49°13' W 123°50'1817.6
2014-Sep-11 15:34N 49°06' W 123°25'1312.7
2014-Sep-11 14:34N 49°00' W 123°08'1312.8
2014-Sep-11 13:33N 49°05' W 123°26'1717.4
2014-Sep-11 12:33N 49°13' W 123°50'4 4.0
2014-Sep-11 11:33N 49°10' W 123°53'0 0.0
2014-Sep-11 10:33N 49°10' W 123°53'0 0.0
2014-Sep-11 09:33N 49°10' W 123°53'0 0.0
2014-Sep-11 08:33N 49°10' W 123°53'0 0.4
2014-Sep-11 07:33N 49°10' W 123°53'1616.2
2014-Sep-11 06:33N 49°07' W 123°29'1515.5
2014-Sep-11 05:33N 49°00' W 123°08'1111.5
2014-Sep-11 04:33N 49°03' W 123°25'1817.8
2014-Sep-11 03:33N 49°13' W 123°48'4 4.2
2014-Sep-11 02:33N 49°11' W 123°53'1717.2
2014-Sep-11 01:33N 49°07' W 123°28'1414.5
2014-Sep-11 00:33N 49°00' W 123°08'1312.5
2014-Sep-10 23:33N 49°04' W 123°26'1817.8
2014-Sep-10 22:33N 49°13' W 123°50'1 0.7
2014-Sep-10 21:33N 49°13' W 123°51'1818.1
2014-Sep-10 20:33N 49°06' W 123°26'1312.7
2014-Sep-10 19:33N 49°00' W 123°08'1312.7
2014-Sep-10 18:33N 49°04' W 123°26'1818.2
2014-Sep-10 17:33N 49°13' W 123°51'0 0.4
2014-Sep-10 16:33N 49°13' W 123°50'1818.1
2014-Sep-10 15:33N 49°06' W 123°25'1312.6
2014-Sep-10 14:33N 49°00' W 123°08'1312.9
2014-Sep-10 13:33N 49°05' W 123°26'1717.4
2014-Sep-10 12:33N 49°13' W 123°50'4 0.7
2014-Sep-10 07:33N 49°10' W 123°53'1616.0
2014-Sep-10 06:33N 49°07' W 123°29'1615.6
2014-Sep-10 05:34N 49°00' W 123°08'1010.5
2014-Sep-10 04:33N 49°03' W 123°23'1918.8
2014-Sep-10 03:32N 49°13' W 123°48'3 3.4
2014-Sep-10 02:33N 49°12' W 123°53'1818.0
2014-Sep-10 01:33N 49°06' W 123°27'1413.9
2014-Sep-10 00:34N 49°00' W 123°08'1313.1
2014-Sep-09 23:34N 49°05' W 123°27'1817.8
2014-Sep-09 22:33N 49°12' W 123°51'0 0.2
2014-Sep-09 21:34N 49°13' W 123°52'1817.6
2014-Sep-09 20:34N 49°06' W 123°26'  

Dump ship's entire track history